Time;durP1;ratioP1;P1;durP2;ratioP2;P2;SDS_P1;SDS_P2;PMS_P1;PMS_P2;Temp;Humidity;BMP_temperature;BMP_pressure;BME280_temperature;BME280_humidity;BME280_pressure;Samples;Min_cycle;Max_cycle;Signal;HPM_P1;HPM_P2
2023/05/04 00:00:49;;;;;;;87.10;53.10;;;23.30;58.70;;;;;;221791;1266;22541;-57
2023/05/04 00:05:55;;;;;;;77.60;52.20;;;23.30;58.80;;;;;;221831;1259;22511;-57
2023/05/04 00:10:59;;;;;;;82.30;50.80;;;23.20;58.70;;;;;;221676;1266;22531;-58
2023/05/04 00:16:06;;;;;;;77.60;49.20;;;23.20;58.90;;;;;;221518;1272;23080;-58
2023/05/04 00:21:13;;;;;;;71.70;48.80;;;23.20;58.80;;;;;;221702;1266;24315;-59
2023/05/04 00:26:18;;;;;;;72.70;47.40;;;23.10;59.00;;;;;;222050;1264;23893;-59
2023/05/04 00:31:24;;;;;;;71.80;47.70;;;23.10;59.00;;;;;;222651;1268;22585;-58
2023/05/04 00:36:28;;;;;;;67.00;45.00;;;23.10;58.90;;;;;;222547;1259;22524;-58
2023/05/04 00:41:32;;;;;;;65.20;43.40;;;23.10;58.80;;;;;;222559;1266;22750;-61
2023/05/04 00:46:37;;;;;;;75.00;44.50;;;23.10;59.80;;;;;;222686;1253;23879;-57
2023/05/04 00:51:42;;;;;;;68.50;44.60;;;23.20;60.70;;;;;;222808;1263;22513;-59
2023/05/04 00:56:47;;;;;;;67.60;43.80;;;23.10;60.90;;;;;;222371;1267;24199;-59
2023/05/04 01:01:51;;;;;;;63.60;42.00;;;23.00;60.60;;;;;;222546;1269;22515;-58
2023/05/04 01:07:15;;;;;;;67.20;43.00;;;23.00;61.00;;;;;;222618;1257;22585;-58
2023/05/04 01:12:33;;;;;;;64.80;41.50;;;22.90;60.50;;;;;;222619;1264;23938;-59
2023/05/04 01:17:38;;;;;;;59.50;39.90;;;22.90;60.50;;;;;;222829;1256;25404;-59
2023/05/04 01:22:44;;;;;;;55.60;37.80;;;22.90;60.50;;;;;;221206;1267;25381;-57
2023/05/04 01:27:50;;;;;;;53.70;38.60;;;22.90;60.40;;;;;;221550;1268;24235;-58
2023/05/04 01:32:57;;;;;;;57.90;39.20;;;22.80;60.50;;;;;;221364;1274;22607;-58
2023/05/04 01:38:02;;;;;;;55.20;37.60;;;22.80;60.40;;;;;;221536;1268;24366;-58
2023/05/04 01:43:10;;;;;;;52.40;36.90;;;22.80;60.50;;;;;;222808;1266;22516;-59
2023/05/04 01:48:15;;;;;;;54.20;35.30;;;22.70;60.20;;;;;;222506;1263;25404;-61
2023/05/04 01:53:20;;;;;;;56.50;36.60;;;22.70;60.30;;;;;;223087;1257;25333;-57
2023/05/04 01:58:24;;;;;;;51.00;34.70;;;22.70;60.50;;;;;;222456;1259;25255;-57
2023/05/04 02:03:30;;;;;;;49.00;35.80;;;22.60;60.50;;;;;;222652;1253;22501;-57
2023/05/04 02:08:34;;;;;;;50.40;35.30;;;22.70;60.10;;;;;;222391;1259;22616;-58
2023/05/04 02:13:39;;;;;;;48.80;32.70;;;23.10;59.00;;;;;;222468;1265;247708;-58
2023/05/04 02:18:43;;;;;;;45.70;32.90;;;23.30;58.80;;;;;;222744;1257;24246;-59
2023/05/04 02:23:48;;;;;;;44.70;30.90;;;23.70;58.30;;;;;;222739;1253;23959;-60
2023/05/04 02:28:52;;;;;;;44.50;31.30;;;23.90;57.40;;;;;;222419;1257;24190;-58
2023/05/04 02:33:57;;;;;;;39.20;30.10;;;24.10;56.60;;;;;;222638;1267;22511;-58
2023/05/04 02:39:02;;;;;;;41.60;29.10;;;24.10;56.50;;;;;;222796;1262;25446;-58
2023/05/04 02:44:07;;;;;;;44.40;30.60;;;24.20;56.60;;;;;;222646;1266;25341;-58
2023/05/04 02:49:13;;;;;;;38.60;27.80;;;24.20;56.50;;;;;;222602;1263;22535;-62
2023/05/04 02:54:18;;;;;;;39.90;28.70;;;24.20;56.00;;;;;;222704;1266;24180;-60
2023/05/04 02:59:22;;;;;;;36.60;26.80;;;24.20;56.10;;;;;;222307;1269;23010;-59
2023/05/04 03:04:26;;;;;;;36.80;27.10;;;24.20;56.10;;;;;;222491;1255;24298;-60
2023/05/04 03:09:30;;;;;;;33.60;25.30;;;24.20;56.00;;;;;;222498;1256;22517;-57
2023/05/04 03:14:35;;;;;;;34.80;25.80;;;24.30;56.70;;;;;;222475;1255;25465;-59
2023/05/04 03:19:40;;;;;;;34.70;25.00;;;24.30;55.90;;;;;;222287;1256;23121;-57
2023/05/04 03:24:45;;;;;;;33.90;25.60;;;24.30;55.80;;;;;;222447;1263;24382;-58
2023/05/04 03:29:50;;;;;;;36.00;25.90;;;24.40;55.70;;;;;;222379;1256;24254;-57
2023/05/04 03:34:55;;;;;;;34.80;24.40;;;24.40;55.60;;;;;;222032;1266;23456;-59
2023/05/04 03:40:00;;;;;;;36.30;23.00;;;24.20;56.10;;;;;;222545;1265;22515;-58
2023/05/04 03:45:06;;;;;;;33.40;23.90;;;24.20;56.40;;;;;;222484;1261;25429;-60
2023/05/04 03:50:11;;;;;;;29.80;22.40;;;24.30;56.00;;;;;;222067;1263;22612;-59
2023/05/04 03:55:15;;;;;;;32.90;23.30;;;24.10;55.90;;;;;;222637;1254;25386;-59
2023/05/04 04:00:23;;;;;;;33.10;22.70;;;24.00;56.30;;;;;;222412;1257;24964;-58
2023/05/04 04:05:32;;;;;;;33.00;22.30;;;23.90;56.30;;;;;;222173;1257;25487;-57
2023/05/04 04:10:36;;;;;;;36.70;22.20;;;24.00;56.10;;;;;;222540;1258;22511;-57
2023/05/04 04:15:44;;;;;;;28.90;22.00;;;24.00;56.60;;;;;;222497;1263;22537;-59
2023/05/04 04:20:49;;;;;;;32.10;21.30;;;23.80;56.40;;;;;;222100;1265;24315;-59
2023/05/04 04:25:53;;;;;;;30.80;21.00;;;23.80;56.40;;;;;;222037;1263;22669;-59
2023/05/04 04:30:58;;;;;;;26.40;20.00;;;23.70;56.50;;;;;;222450;1254;25313;-59
2023/05/04 04:36:04;;;;;;;26.20;19.20;;;23.60;56.60;;;;;;222435;1266;25513;-58
2023/05/04 04:41:08;;;;;;;26.10;19.90;;;23.50;57.00;;;;;;222319;1257;25223;-59
2023/05/04 04:46:13;;;;;;;24.50;19.20;;;23.40;56.70;;;;;;222434;1262;25252;-59
2023/05/04 04:51:18;;;;;;;23.40;18.50;;;23.40;57.00;;;;;;222312;1267;22560;-58
2023/05/04 04:56:23;;;;;;;24.30;18.50;;;23.40;57.30;;;;;;222430;1263;22520;-59
2023/05/04 05:01:28;;;;;;;23.80;18.60;;;23.40;57.40;;;;;;222350;1263;22627;-58
2023/05/04 05:06:33;;;;;;;25.40;18.80;;;23.40;57.00;;;;;;222187;1257;24410;-57
2023/05/04 05:11:37;;;;;;;22.30;17.90;;;23.30;57.10;;;;;;222423;1263;22510;-57
2023/05/04 05:16:41;;;;;;;31.00;18.60;;;23.30;56.70;;;;;;222410;1263;22557;-55
2023/05/04 05:21:51;;;;;;;24.70;17.80;;;23.30;57.50;;;;;;222066;1263;22518;-59
2023/05/04 05:26:57;;;;;;;22.10;16.90;;;23.20;57.60;;;;;;222155;1263;23957;-59
2023/05/04 05:32:02;;;;;;;22.80;16.50;;;23.20;57.30;;;;;;222174;1259;25287;-58
2023/05/04 05:37:06;;;;;;;27.70;17.50;;;23.20;57.40;;;;;;222180;1265;22521;-59
2023/05/04 05:42:11;;;;;;;22.20;16.80;;;23.20;57.00;;;;;;222190;1263;25592;-59
2023/05/04 05:47:16;;;;;;;21.30;15.60;;;23.10;57.30;;;;;;222358;1263;23473;-61
2023/05/04 05:52:20;;;;;;;21.00;16.10;;;23.10;57.20;;;;;;222555;1262;26543;-59
2023/05/04 05:57:24;;;;;;;21.50;16.80;;;23.10;57.60;;;;;;222354;1264;22517;-60
2023/05/04 06:02:29;;;;;;;24.00;17.80;;;23.10;58.30;;;;;;222584;1257;22500;-60
2023/05/04 06:07:33;;;;;;;18.30;15.00;;;23.10;58.60;;;;;;222856;1263;24337;-58
2023/05/04 06:12:37;;;;;;;22.60;15.90;;;23.10;58.20;;;;;;222343;1264;22519;-57
2023/05/04 06:17:42;;;;;;;21.60;15.30;;;23.20;57.90;;;;;;222151;1247;25326;-57
2023/05/04 06:22:47;;;;;;;22.20;14.60;;;23.30;58.10;;;;;;222537;1264;25553;-57
2023/05/04 06:27:52;;;;;;;20.60;14.70;;;23.20;58.60;;;;;;222313;1266;22507;-57
2023/05/04 06:32:57;;;;;;;19.70;13.80;;;23.30;58.70;;;;;;222445;1268;22644;-59
2023/05/04 06:38:03;;;;;;;31.50;19.50;;;23.40;58.10;;;;;;222466;1266;25477;-59
2023/05/04 06:43:07;;;;;;;80.80;42.90;;;23.30;58.70;;;;;;222552;1260;25351;-59
2023/05/04 06:48:12;;;;;;;89.60;47.30;;;23.20;58.80;;;;;;222636;1263;22505;-62
2023/05/04 06:53:17;;;;;;;128.50;66.20;;;23.30;58.60;;;;;;222933;1260;22528;-59
2023/05/04 06:58:22;;;;;;;131.00;61.30;;;23.30;58.30;;;;;;222788;1257;23886;-55
2023/05/04 07:03:26;;;;;;;119.80;59.50;;;23.20;59.20;;;;;;222730;1269;25335;-52
2023/05/04 07:08:31;;;;;;;99.70;51.60;;;23.30;58.30;;;;;;222504;1267;22586;-55
2023/05/04 07:13:37;;;;;;;95.30;48.40;;;23.20;57.70;;;;;;222438;1266;24219;-54
2023/05/04 07:18:41;;;;;;;84.10;45.60;;;23.10;57.90;;;;;;222460;1263;22514;-51
2023/05/04 07:23:48;;;;;;;86.80;44.50;;;23.10;57.30;;;;;;222477;1263;22498;-49
2023/05/04 07:28:52;;;;;;;73.90;42.10;;;23.10;56.90;;;;;;222253;1250;24240;-54
2023/05/04 07:33:57;;;;;;;70.90;41.00;;;23.10;57.10;;;;;;222547;1263;22520;-53
2023/05/04 07:39:02;;;;;;;79.60;40.20;;;23.10;57.10;;;;;;222659;1266;25340;-53
2023/05/04 07:44:07;;;;;;;73.60;40.10;;;23.10;57.10;;;;;;222394;1268;22620;-54
2023/05/04 07:49:11;;;;;;;71.40;38.20;;;23.10;57.50;;;;;;222592;1266;24379;-53
2023/05/04 07:54:16;;;;;;;62.00;35.20;;;23.10;57.10;;;;;;222589;1266;24345;-53
2023/05/04 08:00:04;;;;;;;66.70;37.70;;;23.10;57.00;;;;;;222466;1261;24723;-54
2023/05/04 08:05:39;;;;;;;58.20;34.30;;;23.10;57.00;;;;;;223077;1257;24185;-55
2023/05/04 08:10:43;;;;;;;58.20;33.70;;;23.10;56.90;;;;;;222573;1264;22623;-50
2023/05/04 08:15:48;;;;;;;57.90;34.40;;;23.10;56.80;;;;;;222865;1263;25414;-53
2023/05/04 08:20:53;;;;;;;53.40;30.70;;;23.10;56.70;;;;;;222407;1263;26642;-52
2023/05/04 08:25:57;;;;;;;49.20;30.70;;;23.10;56.60;;;;;;222852;1266;24260;-54
2023/05/04 08:31:02;;;;;;;47.30;30.20;;;23.10;56.40;;;;;;222763;1262;22619;-51
2023/05/04 08:36:08;;;;;;;48.40;29.20;;;23.20;56.20;;;;;;222572;1257;23010;-51
2023/05/04 08:41:12;;;;;;;47.90;28.20;;;23.20;56.40;;;;;;222552;1266;24735;-49
2023/05/04 08:46:16;;;;;;;48.60;29.60;;;23.20;57.20;;;;;;222562;1263;22504;-51
2023/05/04 08:51:22;;;;;;;47.10;29.40;;;23.30;57.30;;;;;;222604;1266;24045;-50
2023/05/04 08:56:26;;;;;;;66.50;29.30;;;23.20;59.00;;;;;;222997;1266;22568;-57
2023/05/04 09:01:32;;;;;;;49.00;28.50;;;23.10;59.20;;;;;;222785;1269;22501;-52
2023/05/04 09:06:37;;;;;;;44.00;27.70;;;23.00;59.20;;;;;;222890;1266;22527;-52
2023/05/04 09:11:43;;;;;;;40.60;27.80;;;23.20;59.10;;;;;;222435;1269;22514;-51
2023/05/04 09:16:48;;;;;;;43.60;27.10;;;23.20;59.80;;;;;;222731;1266;24196;-50
2023/05/04 09:21:53;;;;;;;42.70;26.50;;;23.10;59.70;;;;;;222664;1252;23912;-55
2023/05/04 09:27:17;;;;;;;43.00;25.50;;;23.10;60.00;;;;;;222952;1263;24186;-50
2023/05/04 09:32:21;;;;;;;43.20;25.60;;;23.10;60.10;;;;;;222662;1263;26120;-49
2023/05/04 09:37:25;;;;;;;37.00;24.70;;;23.10;60.30;;;;;;222569;1263;22553;-56
2023/05/04 09:42:30;;;;;;;42.20;25.50;;;23.10;60.60;;;;;;222571;1264;22600;-54
2023/05/04 09:47:39;;;;;;;37.80;23.40;;;23.20;60.50;;;;;;222717;1261;24257;-57
2023/05/04 09:52:46;;;;;;;40.10;24.40;;;23.30;60.70;;;;;;222751;1263;22497;-59
2023/05/04 09:57:50;;;;;;;39.80;24.90;;;23.30;61.20;;;;;;222643;1269;22522;-55
2023/05/04 10:02:55;;;;;;;36.90;23.50;;;23.30;61.10;;;;;;222432;1259;22502;-54
2023/05/04 10:08:00;;;;;;;35.70;22.30;;;23.30;61.20;;;;;;223243;1266;22524;-54
2023/05/04 10:13:04;;;;;;;35.80;22.00;;;23.30;61.40;;;;;;222716;1269;22530;-53
2023/05/04 10:18:38;;;;;;;29.60;20.80;;;23.30;61.30;;;;;;222528;1266;24180;-52
2023/05/04 10:24:07;;;;;;;32.00;21.00;;;23.20;61.30;;;;;;222778;1266;22530;-54
2023/05/04 10:29:21;;;;;;;29.50;20.30;;;23.30;61.40;;;;;;222799;1266;25312;-51
2023/05/04 10:34:28;;;;;;;25.80;17.40;;;23.40;60.20;;;;;;222900;1263;25198;-49
2023/05/04 10:39:34;;;;;;;21.00;13.50;;;23.30;59.10;;;;;;223411;1263;23113;-53
2023/05/04 10:44:55;;;;;;;17.50;12.60;;;23.20;57.50;;;;;;223109;1266;24225;-51
2023/05/04 10:50:14;;;;;;;13.80;10.80;;;23.40;53.50;;;;;;223096;1266;23006;-52
2023/05/04 10:55:20;;;;;;;15.80;10.30;;;23.70;52.70;;;;;;222747;1268;23495;-49
2023/05/04 11:00:42;;;;;;;12.30;9.60;;;24.00;53.20;;;;;;222339;1264;25485;-53
2023/05/04 11:05:51;;;;;;;12.20;9.20;;;24.10;53.30;;;;;;222296;1248;24936;-48
2023/05/04 11:11:05;;;;;;;13.50;9.80;;;24.30;53.50;;;;;;222673;1269;24042;-50
2023/05/04 11:16:11;;;;;;;12.60;9.90;;;24.30;54.00;;;;;;222576;1254;24198;-51
2023/05/04 11:21:42;;;;;;;12.40;8.80;;;24.30;54.40;;;;;;222396;1254;22506;-49
2023/05/04 11:26:48;;;;;;;11.10;8.90;;;24.30;54.60;;;;;;221245;1275;22840;-51
2023/05/04 11:31:55;;;;;;;11.60;7.50;;;24.30;55.10;;;;;;221028;1276;23890;-53
2023/05/04 11:36:59;;;;;;;10.90;8.00;;;24.30;53.70;;;;;;221549;1262;22518;-53
2023/05/04 11:42:07;;;;;;;9.40;6.10;;;24.30;52.70;;;;;;220999;1265;22536;-52
2023/05/04 11:47:12;;;;;;;9.10;6.60;;;24.30;52.40;;;;;;221086;1270;25327;-53
2023/05/04 11:52:23;;;;;;;9.60;5.50;;;24.40;50.10;;;;;;221316;1275;25464;-57
2023/05/04 11:57:27;;;;;;;9.30;6.20;;;24.50;50.10;;;;;;221432;1276;22526;-51
2023/05/04 12:02:32;;;;;;;5.50;4.90;;;24.50;50.80;;;;;;221737;1269;25446;-53
2023/05/04 12:07:36;;;;;;;7.50;5.30;;;24.50;51.30;;;;;;222996;1269;23812;-54
2023/05/04 12:12:41;;;;;;;7.60;4.70;;;24.50;50.90;;;;;;222639;1266;22518;-55
2023/05/04 12:17:45;;;;;;;5.90;4.80;;;24.40;50.70;;;;;;222321;1263;24049;-52
2023/05/04 12:22:49;;;;;;;6.00;4.70;;;24.40;50.10;;;;;;222065;1263;25070;-54
2023/05/04 12:27:54;;;;;;;4.90;4.30;;;24.30;51.00;;;;;;222805;1255;22642;-53
2023/05/04 12:32:58;;;;;;;4.50;4.10;;;24.30;50.30;;;;;;222579;1266;22596;-52
2023/05/04 12:38:03;;;;;;;5.00;4.30;;;24.20;49.80;;;;;;222569;1266;23982;-52
2023/05/04 12:43:07;;;;;;;4.90;4.10;;;24.30;49.70;;;;;;222825;1253;22517;-52
2023/05/04 12:48:12;;;;;;;5.90;4.20;;;24.30;49.60;;;;;;222855;1269;22538;-52
2023/05/04 12:53:17;;;;;;;4.60;3.90;;;24.30;50.80;;;;;;222377;1269;24257;-55
2023/05/04 12:58:21;;;;;;;5.70;3.70;;;24.10;50.70;;;;;;222532;1269;22626;-56
2023/05/04 13:03:25;;;;;;;3.60;3.30;;;24.20;51.00;;;;;;222897;1266;22521;-50
2023/05/04 13:08:31;;;;;;;4.40;3.80;;;24.10;50.50;;;;;;222451;1266;24240;-50
2023/05/04 13:13:40;;;;;;;3.90;3.50;;;24.10;50.20;;;;;;222929;1266;23020;-49
2023/05/04 13:18:44;;;;;;;6.80;3.40;;;24.10;50.00;;;;;;222578;1247;23896;-50
2023/05/04 13:23:49;;;;;;;6.60;3.60;;;24.10;49.90;;;;;;222604;1263;22511;-53
2023/05/04 13:28:53;;;;;;;3.90;2.70;;;24.10;50.20;;;;;;222403;1260;25211;-51
2023/05/04 13:33:58;;;;;;;3.50;2.90;;;24.10;49.80;;;;;;222789;1269;22518;-52
2023/05/04 13:39:02;;;;;;;3.30;2.80;;;24.10;49.80;;;;;;222275;1266;22516;-51
2023/05/04 13:44:06;;;;;;;6.20;2.50;;;24.10;49.60;;;;;;222689;1266;23402;-52
2023/05/04 13:49:10;;;;;;;4.40;2.90;;;24.10;49.00;;;;;;222658;1266;22511;-51
2023/05/04 13:54:15;;;;;;;4.30;2.90;;;24.00;49.00;;;;;;222569;1269;24219;-54
2023/05/04 13:59:19;;;;;;;4.40;2.70;;;24.00;46.40;;;;;;222859;1269;22543;-51
2023/05/04 14:04:23;;;;;;;3.90;2.50;;;24.10;45.50;;;;;;222498;1266;25533;-50
2023/05/04 14:09:27;;;;;;;3.90;2.80;;;24.10;46.40;;;;;;222485;1263;24182;-51
2023/05/04 14:14:31;;;;;;;4.00;2.80;;;24.10;46.60;;;;;;227199;1269;198890;-53
2023/05/04 14:19:37;;;;;;;4.20;3.10;;;24.10;47.00;;;;;;226076;1265;22507;-52
2023/05/04 14:24:42;;;;;;;2.20;2.10;;;24.20;46.90;;;;;;221610;1269;22528;-54
2023/05/04 14:29:46;;;;;;;2.40;2.20;;;24.10;47.80;;;;;;221683;1266;22691;-52
2023/05/04 14:34:51;;;;;;;4.60;2.60;;;24.10;48.50;;;;;;222109;1269;24564;-51
2023/05/04 14:39:55;;;;;;;2.60;2.40;;;24.00;48.30;;;;;;221828;1271;22821;-53
2023/05/04 14:44:59;;;;;;;2.50;2.20;;;24.00;48.60;;;;;;221864;1272;22599;-55
2023/05/04 14:50:05;;;;;;;2.90;2.50;;;24.00;48.70;;;;;;221714;1271;22514;-51
2023/05/04 14:55:13;;;;;;;2.60;2.40;;;24.00;49.00;;;;;;222626;1268;25541;-52
2023/05/04 15:00:18;;;;;;;2.70;2.50;;;23.90;49.30;;;;;;222701;1266;25974;-56
2023/05/04 15:05:24;;;;;;;2.40;2.20;;;23.90;49.00;;;;;;222754;1267;25378;-54
2023/05/04 15:10:29;;;;;;;5.30;2.90;;;23.90;49.10;;;;;;222354;1267;23865;-53
2023/05/04 15:15:38;;;;;;;14.20;3.40;;;23.90;49.40;;;;;;222792;1268;25330;-51
2023/05/04 15:20:42;;;;;;;7.00;2.60;;;24.10;49.50;;;;;;222675;1244;22668;-53
2023/05/04 15:25:47;;;;;;;7.20;2.70;;;24.10;49.80;;;;;;223075;1255;22535;-53
2023/05/04 15:30:51;;;;;;;6.80;2.70;;;24.10;50.90;;;;;;222698;1258;24180;-51
2023/05/04 15:35:55;;;;;;;8.20;2.60;;;24.10;54.60;;;;;;222604;1267;22515;-49
2023/05/04 15:40:59;;;;;;;5.50;2.70;;;24.20;59.40;;;;;;222340;1264;23133;-50
2023/05/04 15:46:03;;;;;;;4.10;2.50;;;24.20;59.70;;;;;;222786;1266;22518;-50
2023/05/04 15:51:11;;;;;;;3.60;2.60;;;24.30;58.00;;;;;;222746;1269;22512;-52
2023/05/04 15:56:15;;;;;;;9.00;3.00;;;24.40;61.50;;;;;;222748;1264;22517;-53
2023/05/04 16:01:20;;;;;;;5.60;2.80;;;24.40;60.60;;;;;;222399;1253;25227;-53
2023/05/04 16:06:27;;;;;;;13.10;2.50;;;24.40;60.00;;;;;;223055;1267;24260;-56
2023/05/04 16:11:36;;;;;;;6.70;2.50;;;24.30;59.40;;;;;;222532;1267;24233;-50
2023/05/04 16:16:41;;;;;;;10.80;3.00;;;24.40;58.50;;;;;;221874;1262;23393;-53
2023/05/04 16:21:45;;;;;;;4.50;2.60;;;24.40;57.90;;;;;;222796;1266;25389;-50
2023/05/04 16:26:51;;;;;;;3.00;2.20;;;24.40;57.60;;;;;;222443;1264;24094;-55
2023/05/04 16:31:55;;;;;;;3.90;2.70;;;24.30;57.10;;;;;;222668;1264;22514;-54
2023/05/04 16:37:02;;;;;;;2.90;2.20;;;24.40;57.30;;;;;;222183;1266;22507;-53
2023/05/04 16:42:07;;;;;;;5.20;2.70;;;24.40;56.70;;;;;;222884;1264;22505;-53
2023/05/04 16:47:12;;;;;;;4.00;2.70;;;24.30;56.30;;;;;;222997;1267;25312;-58
2023/05/04 16:52:16;;;;;;;8.00;2.70;;;24.30;56.30;;;;;;222655;1257;24300;-57
2023/05/04 16:57:21;;;;;;;8.50;3.00;;;24.20;55.90;;;;;;222594;1264;24039;-57
2023/05/04 17:02:25;;;;;;;10.30;3.30;;;24.20;56.00;;;;;;222428;1254;24508;-58
2023/05/04 17:07:29;;;;;;;12.40;2.80;;;24.30;56.10;;;;;;222781;1264;22515;-59
2023/05/04 17:12:34;;;;;;;4.30;2.60;;;24.30;56.40;;;;;;222668;1254;24193;-60
2023/05/04 17:17:40;;;;;;;5.10;2.20;;;24.30;55.70;;;;;;222843;1254;25305;-57
2023/05/04 17:22:45;;;;;;;8.20;2.70;;;24.50;55.20;;;;;;222838;1264;22508;-57
2023/05/04 17:27:49;;;;;;;7.40;2.60;;;24.50;55.30;;;;;;222801;1266;22953;-63
2023/05/04 17:32:56;;;;;;;9.50;2.90;;;24.50;54.90;;;;;;222737;1268;25331;-60
2023/05/04 17:38:00;;;;;;;13.00;2.80;;;24.50;54.70;;;;;;222731;1264;25347;-62
2023/05/04 17:43:04;;;;;;;6.90;2.70;;;24.40;55.50;;;;;;222662;1269;25347;-61
2023/05/04 17:48:08;;;;;;;9.50;2.30;;;24.30;55.30;;;;;;223210;1267;23897;-60
2023/05/04 17:53:13;;;;;;;7.60;2.60;;;24.20;55.30;;;;;;222505;1264;25288;-59
2023/05/04 17:58:18;;;;;;;6.60;2.60;;;24.20;55.20;;;;;;222552;1268;22514;-59
2023/05/04 18:03:22;;;;;;;14.80;3.30;;;24.30;54.70;;;;;;222725;1254;23285;-60
2023/05/04 18:08:26;;;;;;;6.60;2.30;;;24.30;54.30;;;;;;222658;1263;22514;-60
2023/05/04 18:13:31;;;;;;;6.40;3.00;;;24.40;54.50;;;;;;222702;1266;22525;-62
2023/05/04 18:18:35;;;;;;;7.50;2.30;;;24.40;54.30;;;;;;222479;1264;23889;-59
2023/05/04 18:23:39;;;;;;;2.40;2.00;;;24.40;53.30;;;;;;222578;1263;22500;-60
2023/05/04 18:28:45;;;;;;;5.90;2.40;;;24.30;53.50;;;;;;222449;1264;24176;-59
2023/05/04 18:33:51;;;;;;;6.60;2.30;;;24.30;53.60;;;;;;222378;1263;25300;-58
2023/05/04 18:38:59;;;;;;;12.40;2.80;;;24.40;53.40;;;;;;222780;1255;24119;-61
2023/05/04 18:44:04;;;;;;;7.60;2.50;;;24.20;53.00;;;;;;223144;1267;22834;-59
2023/05/04 18:49:09;;;;;;;8.70;2.40;;;24.10;53.30;;;;;;222620;1269;22519;-61
2023/05/04 18:54:15;;;;;;;6.20;2.40;;;24.10;52.80;;;;;;221934;1273;22536;-62
2023/05/04 18:59:21;;;;;;;4.50;1.90;;;24.20;53.00;;;;;;221799;1267;22605;-63
2023/05/04 19:04:26;;;;;;;11.10;3.00;;;24.10;53.30;;;;;;221431;1252;25551;-59
2023/05/04 19:09:31;;;;;;;6.10;2.60;;;24.20;52.90;;;;;;221055;1259;24206;-58
2023/05/04 19:14:36;;;;;;;12.70;2.80;;;24.20;52.50;;;;;;222500;1273;24084;-58
2023/05/04 19:19:40;;;;;;;10.50;3.50;;;24.20;52.40;;;;;;221830;1263;22527;-60
2023/05/04 19:24:50;;;;;;;16.30;5.20;;;24.10;53.30;;;;;;221335;1270;22530;-59
2023/05/04 19:29:54;;;;;;;12.90;5.10;;;24.10;53.60;;;;;;222233;1260;25313;-57
2023/05/04 19:34:59;;;;;;;16.90;7.90;;;24.10;54.00;;;;;;223072;1264;23545;-57
2023/05/04 19:40:04;;;;;;;14.10;6.70;;;24.10;53.80;;;;;;226298;1269;24247;-60
2023/05/04 19:45:10;;;;;;;10.50;4.80;;;24.10;53.20;;;;;;222603;1264;22529;-59
2023/05/04 19:50:15;;;;;;;10.20;4.80;;;24.10;52.30;;;;;;222025;1252;24267;-60
2023/05/04 19:55:20;;;;;;;6.70;4.00;;;24.00;53.20;;;;;;222597;1269;24149;-59
2023/05/04 20:00:24;;;;;;;18.70;8.10;;;23.90;53.30;;;;;;222229;1262;23138;-60
2023/05/04 20:05:29;;;;;;;44.10;17.90;;;23.90;53.30;;;;;;222523;1269;22521;-60
2023/05/04 20:10:33;;;;;;;63.20;30.40;;;24.10;53.70;;;;;;222453;1266;22512;-58
2023/05/04 20:15:37;;;;;;;89.50;43.80;;;24.10;52.40;;;;;;222329;1269;22764;-58
2023/05/04 20:20:42;;;;;;;94.10;48.50;;;24.10;52.30;;;;;;222565;1263;24808;-59
2023/05/04 20:25:47;;;;;;;93.60;44.20;;;23.90;53.30;;;;;;223035;1256;22518;-57
2023/05/04 20:30:51;;;;;;;87.00;41.60;;;24.00;54.60;;;;;;222684;1256;24216;-58
2023/05/04 20:35:55;;;;;;;79.50;38.00;;;24.10;55.50;;;;;;222620;1263;23696;-59
2023/05/04 20:41:09;;;;;;;79.90;37.50;;;23.90;54.60;;;;;;222172;1269;22775;-56
2023/05/04 20:46:14;;;;;;;91.80;39.60;;;23.80;54.80;;;;;;222347;1269;25335;-60
2023/05/04 20:51:18;;;;;;;77.50;37.30;;;23.80;54.90;;;;;;222368;1264;24212;-57
2023/05/04 20:56:23;;;;;;;73.40;37.80;;;23.80;55.00;;;;;;222539;1255;24242;-59
2023/05/04 21:01:28;;;;;;;69.30;35.00;;;23.80;55.10;;;;;;222925;1266;22524;-57
2023/05/04 21:06:32;;;;;;;69.40;34.90;;;23.70;56.10;;;;;;222620;1267;24288;-64
2023/05/04 21:11:36;;;;;;;70.00;33.90;;;23.70;55.60;;;;;;222715;1256;26496;-60
2023/05/04 21:16:41;;;;;;;67.70;34.60;;;23.70;56.30;;;;;;222480;1265;22541;-58
2023/05/04 21:21:45;;;;;;;66.80;34.50;;;23.70;57.00;;;;;;222325;1268;22518;-60
2023/05/04 21:26:49;;;;;;;64.50;32.30;;;23.80;56.90;;;;;;222821;1265;22650;-60
2023/05/04 21:31:54;;;;;;;61.80;31.40;;;23.80;56.10;;;;;;222785;1263;24179;-59
2023/05/04 21:36:59;;;;;;;60.80;31.50;;;23.90;55.90;;;;;;222648;1268;22979;-60
2023/05/04 21:42:03;;;;;;;56.70;30.50;;;23.80;56.50;;;;;;222615;1269;22984;-61
2023/05/04 21:47:07;;;;;;;55.00;29.70;;;23.80;56.80;;;;;;222401;1266;25377;-59
2023/05/04 21:52:12;;;;;;;53.50;29.20;;;23.70;56.50;;;;;;222313;1261;24423;-57
2023/05/04 21:57:16;;;;;;;54.70;29.40;;;23.70;56.60;;;;;;222458;1266;22602;-59
2023/05/04 22:02:20;;;;;;;56.30;31.10;;;23.60;56.80;;;;;;222558;1256;22512;-59
2023/05/04 22:07:24;;;;;;;49.90;27.70;;;23.60;57.20;;;;;;222445;1266;22515;-60
2023/05/04 22:12:28;;;;;;;55.20;28.60;;;23.60;57.20;;;;;;222452;1259;22518;-59
2023/05/04 22:17:33;;;;;;;55.60;29.30;;;23.60;56.80;;;;;;222357;1265;22508;-60
2023/05/04 22:22:38;;;;;;;50.70;27.40;;;23.60;56.90;;;;;;222285;1256;22517;-59
2023/05/04 22:27:42;;;;;;;44.90;26.90;;;23.60;57.00;;;;;;222004;1263;24677;-57
2023/05/04 22:32:46;;;;;;;42.50;25.50;;;23.50;56.50;;;;;;222125;1263;22517;-56
2023/05/04 22:37:51;;;;;;;43.80;24.80;;;23.50;57.30;;;;;;222168;1266;23017;-58
2023/05/04 22:42:55;;;;;;;48.40;25.60;;;23.50;56.50;;;;;;222433;1263;24307;-60
2023/05/04 22:48:00;;;;;;;42.50;23.60;;;23.50;56.40;;;;;;222149;1265;24466;-60
2023/05/04 22:53:06;;;;;;;41.40;25.80;;;23.50;56.40;;;;;;222221;1258;22662;-58
2023/05/04 22:58:10;;;;;;;41.50;24.20;;;23.50;56.90;;;;;;222380;1264;22822;-59
2023/05/04 23:03:15;;;;;;;38.40;24.50;;;23.50;56.80;;;;;;222372;1265;26683;-58
2023/05/04 23:08:19;;;;;;;39.70;23.20;;;23.40;56.70;;;;;;222605;1263;23282;-58
2023/05/04 23:13:25;;;;;;;38.30;22.60;;;23.40;58.20;;;;;;222431;1263;25381;-55
2023/05/04 23:18:31;;;;;;;40.80;23.20;;;23.40;57.70;;;;;;222691;1254;22602;-56
2023/05/04 23:23:36;;;;;;;38.80;23.10;;;23.30;57.40;;;;;;222691;1263;25312;-62
2023/05/04 23:28:40;;;;;;;39.40;21.00;;;23.30;58.10;;;;;;222590;1263;24184;-58
2023/05/04 23:33:44;;;;;;;35.90;21.10;;;23.30;57.50;;;;;;222751;1268;24221;-59
2023/05/04 23:38:50;;;;;;;35.40;21.80;;;23.30;57.80;;;;;;222958;1263;22888;-60
2023/05/04 23:43:57;;;;;;;35.90;20.80;;;23.30;57.70;;;;;;222977;1266;25252;-60
2023/05/04 23:49:01;;;;;;;32.90;19.80;;;23.20;57.10;;;;;;222823;1262;25462;-59
2023/05/04 23:54:08;;;;;;;37.00;21.00;;;23.20;57.90;;;;;;223014;1266;22622;-58
2023/05/04 23:59:12;;;;;;;31.20;19.40;;;23.20;57.50;;;;;;222674;1250;22515;-60
